sensor_id;sensor_type;location;lat;lon;timestamp;pressure;altitude;pressure_sealevel;temperature;humidity
30073;BME280;16897;52.422;13.678;2022-10-31T00:00:30;101478.16;;;14.45;59.17
30073;BME280;16897;52.422;13.678;2022-10-31T00:04:31;101483.63;;;14.42;59.08
30073;BME280;16897;52.422;13.678;2022-10-31T00:08:33;101490.63;;;14.42;59.16
30073;BME280;16897;52.422;13.678;2022-10-31T00:12:35;101506.78;;;14.50;59.11
30073;BME280;16897;52.422;13.678;2022-10-31T00:16:37;101509.72;;;14.45;59.23
30073;BME280;16897;52.422;13.678;2022-10-31T00:20:39;101501.13;;;14.42;59.29
30073;BME280;16897;52.422;13.678;2022-10-31T00:24:41;101502.09;;;14.41;59.28
30073;BME280;16897;52.422;13.678;2022-10-31T00:28:43;101481.31;;;14.22;59.18
30073;BME280;16897;52.422;13.678;2022-10-31T00:32:45;101497.72;;;14.25;59.26
30073;BME280;16897;52.422;13.678;2022-10-31T00:36:47;101500.72;;;14.19;59.24
30073;BME280;16897;52.422;13.678;2022-10-31T00:40:48;101514.34;;;14.26;59.29
30073;BME280;16897;52.422;13.678;2022-10-31T00:44:51;101489.66;;;13.98;59.30
30073;BME280;16897;52.422;13.678;2022-10-31T00:48:52;101493.72;;;14.04;59.23
30073;BME280;16897;52.422;13.678;2022-10-31T00:52:54;101454.28;;;13.73;59.37
30073;BME280;16897;52.422;13.678;2022-10-31T00:56:57;101523.00;;;14.12;59.37
30073;BME280;16897;52.422;13.678;2022-10-31T01:00:59;101530.03;;;14.11;59.22
30073;BME280;16897;52.422;13.678;2022-10-31T01:05:01;101435.53;;;13.49;59.22
30073;BME280;16897;52.422;13.678;2022-10-31T01:09:03;101517.28;;;13.89;59.25
30073;BME280;16897;52.422;13.678;2022-10-31T01:13:05;101526.78;;;13.92;59.23
30073;BME280;16897;52.422;13.678;2022-10-31T01:17:06;101516.03;;;13.81;59.36
30073;BME280;16897;52.422;13.678;2022-10-31T01:21:18;101513.75;;;13.75;59.37
30073;BME280;16897;52.422;13.678;2022-10-31T01:25:23;101530.84;;;13.82;59.34
30073;BME280;16897;52.422;13.678;2022-10-31T01:29:25;101534.41;;;13.81;59.37
30073;BME280;16897;52.422;13.678;2022-10-31T01:33:27;101532.97;;;13.75;59.48
30073;BME280;16897;52.422;13.678;2022-10-31T01:37:30;101522.13;;;13.65;59.48
30073;BME280;16897;52.422;13.678;2022-10-31T01:41:35;101533.03;;;13.73;59.40
30073;BME280;16897;52.422;13.678;2022-10-31T01:45:40;101530.78;;;13.67;59.42
30073;BME280;16897;52.422;13.678;2022-10-31T01:49:48;101475.81;;;13.33;59.33
30073;BME280;16897;52.422;13.678;2022-10-31T01:53:52;101523.38;;;13.58;59.29
30073;BME280;16897;52.422;13.678;2022-10-31T01:58:09;101524.56;;;13.53;59.35
30073;BME280;16897;52.422;13.678;2022-10-31T02:02:15;101524.00;;;13.47;59.41
30073;BME280;16897;52.422;13.678;2022-10-31T02:06:47;101540.31;;;13.53;59.34
30073;BME280;16897;52.422;13.678;2022-10-31T02:10:51;101512.03;;;13.42;59.41
30073;BME280;16897;52.422;13.678;2022-10-31T02:14:53;101535.59;;;13.43;59.36
30073;BME280;16897;52.422;13.678;2022-10-31T02:18:56;101501.16;;;13.16;59.35
30073;BME280;16897;52.422;13.678;2022-10-31T02:23:19;101551.38;;;13.42;59.41
30073;BME280;16897;52.422;13.678;2022-10-31T02:37:10;101545.34;;;13.24;59.59
30073;BME280;16897;52.422;13.678;2022-10-31T02:45:27;101539.56;;;13.17;59.47
30073;BME280;16897;52.422;13.678;2022-10-31T02:53:45;101555.13;;;13.20;59.52
30073;BME280;16897;52.422;13.678;2022-10-31T02:57:47;101532.41;;;13.03;59.65
30073;BME280;16897;52.422;13.678;2022-10-31T03:02:14;101546.91;;;13.11;59.68
30073;BME280;16897;52.422;13.678;2022-10-31T03:06:40;101557.00;;;13.18;59.58
30073;BME280;16897;52.422;13.678;2022-10-31T03:10:47;101562.31;;;13.17;59.56
30073;BME280;16897;52.422;13.678;2022-10-31T03:15:17;101560.34;;;13.04;59.64
30073;BME280;16897;52.422;13.678;2022-10-31T03:19:35;101568.44;;;13.00;59.69
30073;BME280;16897;52.422;13.678;2022-10-31T03:23:40;101559.28;;;12.91;59.76
30073;BME280;16897;52.422;13.678;2022-10-31T03:27:43;101540.09;;;12.73;59.63
30073;BME280;16897;52.422;13.678;2022-10-31T03:31:55;101567.84;;;12.95;59.71
30073;BME280;16897;52.422;13.678;2022-10-31T03:36:02;101564.59;;;12.90;59.85
30073;BME280;16897;52.422;13.678;2022-10-31T03:40:08;101564.59;;;12.90;59.80
30073;BME280;16897;52.422;13.678;2022-10-31T03:44:16;101578.31;;;12.95;59.87
30073;BME280;16897;52.422;13.678;2022-10-31T03:48:23;101593.00;;;12.99;59.73
30073;BME280;16897;52.422;13.678;2022-10-31T03:52:33;101608.41;;;13.05;59.86
30073;BME280;16897;52.422;13.678;2022-10-31T03:56:52;101612.94;;;13.01;59.90
30073;BME280;16897;52.422;13.678;2022-10-31T04:00:57;101589.88;;;12.91;59.77
30073;BME280;16897;52.422;13.678;2022-10-31T04:05:02;101604.69;;;12.92;59.99
30073;BME280;16897;52.422;13.678;2022-10-31T04:09:06;101602.91;;;12.92;59.83
30073;BME280;16897;52.422;13.678;2022-10-31T04:13:14;101567.41;;;12.69;59.85
30073;BME280;16897;52.422;13.678;2022-10-31T04:17:23;101614.34;;;12.91;59.79
30073;BME280;16897;52.422;13.678;2022-10-31T04:21:30;101604.03;;;12.88;59.78
30073;BME280;16897;52.422;13.678;2022-10-31T04:25:33;101610.25;;;12.86;59.78
30073;BME280;16897;52.422;13.678;2022-10-31T04:29:35;101612.28;;;12.80;59.95
30073;BME280;16897;52.422;13.678;2022-10-31T04:33:37;101569.69;;;12.58;59.92
30073;BME280;16897;52.422;13.678;2022-10-31T04:37:39;101565.56;;;12.54;59.91
30073;BME280;16897;52.422;13.678;2022-10-31T04:41:41;101620.88;;;12.82;59.87
30073;BME280;16897;52.422;13.678;2022-10-31T04:45:48;101621.66;;;12.84;59.99
30073;BME280;16897;52.422;13.678;2022-10-31T04:49:50;101631.47;;;12.81;59.86
30073;BME280;16897;52.422;13.678;2022-10-31T04:53:52;101593.28;;;12.58;59.88
30073;BME280;16897;52.422;13.678;2022-10-31T04:58:03;101625.53;;;12.77;59.90
30073;BME280;16897;52.422;13.678;2022-10-31T05:02:05;101635.28;;;12.74;59.92
30073;BME280;16897;52.422;13.678;2022-10-31T05:06:19;101625.97;;;12.68;59.94
30073;BME280;16897;52.422;13.678;2022-10-31T05:10:27;101603.00;;;12.56;59.88
30073;BME280;16897;52.422;13.678;2022-10-31T05:14:32;101619.34;;;12.61;60.01
30073;BME280;16897;52.422;13.678;2022-10-31T05:18:53;101628.75;;;12.65;59.95
30073;BME280;16897;52.422;13.678;2022-10-31T05:23:10;101617.78;;;12.57;60.04
30073;BME280;16897;52.422;13.678;2022-10-31T05:27:12;101630.44;;;12.66;59.99
30073;BME280;16897;52.422;13.678;2022-10-31T05:31:14;101627.34;;;12.58;60.15
30073;BME280;16897;52.422;13.678;2022-10-31T05:35:30;101647.41;;;12.59;60.12
30073;BME280;16897;52.422;13.678;2022-10-31T05:39:51;101646.41;;;12.61;60.17
30073;BME280;16897;52.422;13.678;2022-10-31T05:43:53;101633.97;;;12.48;60.01
30073;BME280;16897;52.422;13.678;2022-10-31T05:48:01;101649.19;;;12.58;60.12
30073;BME280;16897;52.422;13.678;2022-10-31T05:52:22;101631.00;;;12.36;60.06
30073;BME280;16897;52.422;13.678;2022-10-31T05:56:31;101656.47;;;12.52;60.18
30073;BME280;16897;52.422;13.678;2022-10-31T06:00:33;101658.09;;;12.54;60.23
30073;BME280;16897;52.422;13.678;2022-10-31T06:04:41;101656.31;;;12.55;60.20
30073;BME280;16897;52.422;13.678;2022-10-31T06:08:43;101655.53;;;12.53;60.29
30073;BME280;16897;52.422;13.678;2022-10-31T06:12:50;101663.28;;;12.56;60.27
30073;BME280;16897;52.422;13.678;2022-10-31T06:16:57;101670.88;;;12.60;60.29
30073;BME280;16897;52.422;13.678;2022-10-31T06:21:17;101653.94;;;12.50;60.47
30073;BME280;16897;52.422;13.678;2022-10-31T06:25:19;101664.91;;;12.58;60.25
30073;BME280;16897;52.422;13.678;2022-10-31T06:29:24;101630.94;;;12.38;60.41
30073;BME280;16897;52.422;13.678;2022-10-31T06:33:46;101672.03;;;12.55;60.34
30073;BME280;16897;52.422;13.678;2022-10-31T06:37:55;101684.09;;;12.59;60.36
30073;BME280;16897;52.422;13.678;2022-10-31T06:42:06;101688.53;;;12.57;60.38
30073;BME280;16897;52.422;13.678;2022-10-31T06:46:08;101699.50;;;12.65;60.50
30073;BME280;16897;52.422;13.678;2022-10-31T06:50:17;101688.47;;;12.58;60.36
30073;BME280;16897;52.422;13.678;2022-10-31T06:54:22;101694.25;;;12.65;60.57
30073;BME280;16897;52.422;13.678;2022-10-31T06:58:24;101694.41;;;12.62;60.45
30073;BME280;16897;52.422;13.678;2022-10-31T07:02:28;101695.25;;;12.62;60.47
30073;BME280;16897;52.422;13.678;2022-10-31T07:06:31;101675.91;;;12.48;60.60
30073;BME280;16897;52.422;13.678;2022-10-31T07:10:35;101676.50;;;12.53;60.57
30073;BME280;16897;52.422;13.678;2022-10-31T07:14:39;101697.03;;;12.62;60.71
30073;BME280;16897;52.422;13.678;2022-10-31T07:18:42;101660.97;;;12.31;60.74
30073;BME280;16897;52.422;13.678;2022-10-31T07:22:46;101698.72;;;12.63;60.65
30073;BME280;16897;52.422;13.678;2022-10-31T07:26:48;101723.25;;;12.79;60.65
30073;BME280;16897;52.422;13.678;2022-10-31T07:30:53;101715.50;;;12.78;60.75
30073;BME280;16897;52.422;13.678;2022-10-31T07:34:56;101725.72;;;12.82;60.67
30073;BME280;16897;52.422;13.678;2022-10-31T07:39:04;101723.72;;;12.88;60.94
30073;BME280;16897;52.422;13.678;2022-10-31T07:43:10;101728.13;;;12.87;60.85
30073;BME280;16897;52.422;13.678;2022-10-31T07:52:06;101721.91;;;12.90;61.01
30073;BME280;16897;52.422;13.678;2022-10-31T07:56:37;101691.19;;;12.74;61.03
30073;BME280;16897;52.422;13.678;2022-10-31T08:00:43;101721.47;;;12.99;61.28
30073;BME280;16897;52.422;13.678;2022-10-31T08:04:49;101737.03;;;13.19;61.26
30073;BME280;16897;52.422;13.678;2022-10-31T08:09:16;101739.00;;;13.33;61.48
30073;BME280;16897;52.422;13.678;2022-10-31T08:13:19;101740.63;;;13.53;61.70
30073;BME280;16897;52.422;13.678;2022-10-31T08:17:25;101741.38;;;13.72;61.72
30073;BME280;16897;52.422;13.678;2022-10-31T08:21:32;101754.28;;;13.93;61.88
30073;BME280;16897;52.422;13.678;2022-10-31T08:25:36;101733.66;;;14.03;61.93
30073;BME280;16897;52.422;13.678;2022-10-31T08:29:38;101704.09;;;13.99;62.17
30073;BME280;16897;52.422;13.678;2022-10-31T08:33:40;101759.03;;;14.51;62.24
30073;BME280;16897;52.422;13.678;2022-10-31T08:38:10;101730.28;;;14.48;62.26
30073;BME280;16897;52.422;13.678;2022-10-31T08:42:13;101761.00;;;14.79;62.37
30073;BME280;16897;52.422;13.678;2022-10-31T08:46:15;101754.38;;;14.88;62.39
30073;BME280;16897;52.422;13.678;2022-10-31T08:50:19;101759.78;;;15.01;62.36
30073;BME280;16897;52.422;13.678;2022-10-31T08:54:22;101767.56;;;15.18;62.47
30073;BME280;16897;52.422;13.678;2022-10-31T08:58:29;101752.69;;;15.17;62.41
30073;BME280;16897;52.422;13.678;2022-10-31T09:02:36;101750.38;;;15.27;62.61
30073;BME280;16897;52.422;13.678;2022-10-31T09:06:39;101768.84;;;15.41;62.74
30073;BME280;16897;52.422;13.678;2022-10-31T09:10:42;101746.28;;;15.37;62.55
30073;BME280;16897;52.422;13.678;2022-10-31T09:14:44;101761.66;;;15.59;62.83
30073;BME280;16897;52.422;13.678;2022-10-31T09:19:00;101772.59;;;15.82;62.71
30073;BME280;16897;52.422;13.678;2022-10-31T09:23:07;101775.06;;;15.99;62.82
30073;BME280;16897;52.422;13.678;2022-10-31T09:27:12;101772.44;;;16.13;63.04
30073;BME280;16897;52.422;13.678;2022-10-31T09:31:18;101766.28;;;16.27;62.95
30073;BME280;16897;52.422;13.678;2022-10-31T09:35:38;101767.22;;;16.41;62.99
30073;BME280;16897;52.422;13.678;2022-10-31T09:39:40;101739.66;;;16.32;62.87
30073;BME280;16897;52.422;13.678;2022-10-31T09:48:37;101789.50;;;16.78;63.03
30073;BME280;16897;52.422;13.678;2022-10-31T09:53:04;101741.22;;;16.49;62.64
30073;BME280;16897;52.422;13.678;2022-10-31T09:57:16;101750.59;;;16.67;62.66
30073;BME280;16897;52.422;13.678;2022-10-31T10:01:47;101773.19;;;16.86;62.77
30073;BME280;16897;52.422;13.678;2022-10-31T10:06:24;101770.13;;;16.92;62.83
30073;BME280;16897;52.422;13.678;2022-10-31T10:20:41;101792.84;;;17.34;62.81
30073;BME280;16897;52.422;13.678;2022-10-31T10:29:01;101766.13;;;17.39;62.96
30073;BME280;16897;52.422;13.678;2022-10-31T10:33:16;101766.44;;;17.47;62.85
30073;BME280;16897;52.422;13.678;2022-10-31T10:37:41;101761.63;;;17.54;62.77
30073;BME280;16897;52.422;13.678;2022-10-31T10:41:49;101775.16;;;17.75;62.78
30073;BME280;16897;52.422;13.678;2022-10-31T10:50:48;101761.22;;;17.98;63.00
30073;BME280;16897;52.422;13.678;2022-10-31T10:59:30;101718.72;;;18.01;62.90
30073;BME280;16897;52.422;13.678;2022-10-31T11:03:35;101745.72;;;18.30;63.11
30073;BME280;16897;52.422;13.678;2022-10-31T11:07:39;101756.03;;;18.46;62.97
30073;BME280;16897;52.422;13.678;2022-10-31T11:11:41;101745.75;;;18.54;62.86
30073;BME280;16897;52.422;13.678;2022-10-31T11:16:11;101746.25;;;18.60;62.49
30073;BME280;16897;52.422;13.678;2022-10-31T11:24:21;101702.25;;;18.58;62.79
30073;BME280;16897;52.422;13.678;2022-10-31T11:28:25;101727.16;;;18.80;62.39
30073;BME280;16897;52.422;13.678;2022-10-31T11:32:27;101714.88;;;18.79;62.54
30073;BME280;16897;52.422;13.678;2022-10-31T11:36:34;101689.47;;;18.76;62.56
30073;BME280;16897;52.422;13.678;2022-10-31T11:40:37;101696.53;;;18.89;62.60
30073;BME280;16897;52.422;13.678;2022-10-31T11:44:42;101721.97;;;19.14;62.70
30073;BME280;16897;52.422;13.678;2022-10-31T11:48:49;101678.09;;;18.87;62.29
30073;BME280;16897;52.422;13.678;2022-10-31T11:52:52;101679.00;;;18.99;62.44
30073;BME280;16897;52.422;13.678;2022-10-31T11:56:56;101713.97;;;19.27;62.09
30073;BME280;16897;52.422;13.678;2022-10-31T12:00:58;101663.84;;;19.01;62.11
30073;BME280;16897;52.422;13.678;2022-10-31T12:05:26;101660.97;;;19.04;62.29
30073;BME280;16897;52.422;13.678;2022-10-31T12:09:36;101713.16;;;19.49;61.92
30073;BME280;16897;52.422;13.678;2022-10-31T12:14:15;101662.31;;;19.21;62.15
30073;BME280;16897;52.422;13.678;2022-10-31T12:27:55;101726.47;;;19.82;62.04
30073;BME280;16897;52.422;13.678;2022-10-31T12:51:20;101706.94;;;20.06;61.49
30073;BME280;16897;52.422;13.678;2022-10-31T12:55:37;101705.97;;;20.07;61.84
30073;BME280;16897;52.422;13.678;2022-10-31T12:59:57;101693.06;;;20.02;61.67
30073;BME280;16897;52.422;13.678;2022-10-31T13:04:49;101704.50;;;20.14;61.64
30073;BME280;16897;52.422;13.678;2022-10-31T13:08:58;101694.75;;;20.15;61.26
30073;BME280;16897;52.422;13.678;2022-10-31T13:13:56;101665.72;;;20.02;61.27
30073;BME280;16897;52.422;13.678;2022-10-31T13:17:58;101626.69;;;19.81;61.59
30073;BME280;16897;52.422;13.678;2022-10-31T13:22:07;101685.47;;;20.20;61.60
30073;BME280;16897;52.422;13.678;2022-10-31T13:26:20;101683.41;;;20.24;61.33
30073;BME280;16897;52.422;13.678;2022-10-31T13:30:28;101635.97;;;19.98;61.34
30073;BME280;16897;52.422;13.678;2022-10-31T13:34:38;101677.47;;;20.31;61.50
30073;BME280;16897;52.422;13.678;2022-10-31T13:39:11;101683.72;;;20.30;61.13
30073;BME280;16897;52.422;13.678;2022-10-31T13:43:59;101668.69;;;20.31;61.38
30073;BME280;16897;52.422;13.678;2022-10-31T13:52:26;101662.28;;;20.33;61.29
30073;BME280;16897;52.422;13.678;2022-10-31T13:56:31;101649.25;;;20.30;61.37
30073;BME280;16897;52.422;13.678;2022-10-31T14:00:35;101651.69;;;20.33;60.91
30073;BME280;16897;52.422;13.678;2022-10-31T14:04:48;101646.59;;;20.30;61.09
30073;BME280;16897;52.422;13.678;2022-10-31T14:08:51;101653.09;;;20.38;61.12
30073;BME280;16897;52.422;13.678;2022-10-31T14:13:08;101640.09;;;20.34;60.84
30073;BME280;16897;52.422;13.678;2022-10-31T14:17:25;101640.34;;;20.31;60.92
30073;BME280;16897;52.422;13.678;2022-10-31T14:21:31;101655.75;;;20.38;60.69
30073;BME280;16897;52.422;13.678;2022-10-31T14:25:38;101636.22;;;20.27;60.89
30073;BME280;16897;52.422;13.678;2022-10-31T14:29:39;101644.09;;;20.29;60.86
30073;BME280;16897;52.422;13.678;2022-10-31T14:33:42;101629.50;;;20.23;60.93
30073;BME280;16897;52.422;13.678;2022-10-31T14:43:01;101641.94;;;20.23;60.92
30073;BME280;16897;52.422;13.678;2022-10-31T14:51:21;101615.41;;;20.11;60.69
30073;BME280;16897;52.422;13.678;2022-10-31T14:55:24;101599.31;;;19.92;60.72
30073;BME280;16897;52.422;13.678;2022-10-31T14:59:30;101622.22;;;20.04;60.78
30073;BME280;16897;52.422;13.678;2022-10-31T15:03:44;101626.91;;;20.01;60.66
30073;BME280;16897;52.422;13.678;2022-10-31T15:07:58;101596.59;;;19.82;60.76
30073;BME280;16897;52.422;13.678;2022-10-31T15:12:05;101621.00;;;19.97;60.81
30073;BME280;16897;52.422;13.678;2022-10-31T15:16:32;101557.56;;;19.51;60.71
30073;BME280;16897;52.422;13.678;2022-10-31T15:20:45;101615.16;;;19.82;60.60
30073;BME280;16897;52.422;13.678;2022-10-31T15:24:48;101609.38;;;19.77;60.46
30073;BME280;16897;52.422;13.678;2022-10-31T15:29:05;101622.63;;;19.77;60.54
30073;BME280;16897;52.422;13.678;2022-10-31T15:33:23;101612.22;;;19.63;60.83
30073;BME280;16897;52.422;13.678;2022-10-31T15:37:26;101577.69;;;19.42;60.57
30073;BME280;16897;52.422;13.678;2022-10-31T15:41:47;101581.06;;;19.33;60.59
30073;BME280;16897;52.422;13.678;2022-10-31T15:45:49;101612.47;;;19.49;60.45
30073;BME280;16897;52.422;13.678;2022-10-31T15:49:56;101589.00;;;19.21;60.63
30073;BME280;16897;52.422;13.678;2022-10-31T15:53:58;101618.75;;;19.36;60.47
30073;BME280;16897;52.422;13.678;2022-10-31T15:58:09;101611.75;;;19.24;60.25
30073;BME280;16897;52.422;13.678;2022-10-31T16:02:14;101610.19;;;19.10;60.57
30073;BME280;16897;52.422;13.678;2022-10-31T16:06:20;101617.16;;;19.11;60.50
30073;BME280;16897;52.422;13.678;2022-10-31T16:10:25;101620.03;;;19.08;60.69
30073;BME280;16897;52.422;13.678;2022-10-31T16:14:30;101614.38;;;19.01;60.71
30073;BME280;16897;52.422;13.678;2022-10-31T16:18:40;101606.06;;;18.95;60.42
30073;BME280;16897;52.422;13.678;2022-10-31T16:22:49;101593.38;;;18.76;60.10
30073;BME280;16897;52.422;13.678;2022-10-31T16:26:54;101591.41;;;18.67;60.57
30073;BME280;16897;52.422;13.678;2022-10-31T16:30:59;101583.31;;;18.57;60.36
30073;BME280;16897;52.422;13.678;2022-10-31T16:39:11;101627.97;;;18.73;60.57
30073;BME280;16897;52.422;13.678;2022-10-31T16:43:18;101622.41;;;18.65;60.63
30073;BME280;16897;52.422;13.678;2022-10-31T16:47:20;101626.38;;;18.59;60.36
30073;BME280;16897;52.422;13.678;2022-10-31T16:51:22;101590.94;;;18.38;60.51
30073;BME280;16897;52.422;13.678;2022-10-31T16:55:23;101607.31;;;18.43;60.36
30073;BME280;16897;52.422;13.678;2022-10-31T16:59:26;101573.47;;;18.24;60.29
30073;BME280;16897;52.422;13.678;2022-10-31T17:03:28;101595.50;;;18.35;60.32
30073;BME280;16897;52.422;13.678;2022-10-31T17:07:29;101581.84;;;18.18;60.40
30073;BME280;16897;52.422;13.678;2022-10-31T17:11:31;101598.09;;;18.24;60.54
30073;BME280;16897;52.422;13.678;2022-10-31T17:15:40;101598.66;;;18.17;60.41
30073;BME280;16897;52.422;13.678;2022-10-31T17:19:42;101565.03;;;17.95;60.30
30073;BME280;16897;52.422;13.678;2022-10-31T17:23:44;101556.19;;;17.83;60.32
30073;BME280;16897;52.422;13.678;2022-10-31T17:27:45;101600.78;;;18.11;60.20
30073;BME280;16897;52.422;13.678;2022-10-31T17:31:47;101584.78;;;18.02;60.47
30073;BME280;16897;52.422;13.678;2022-10-31T17:35:49;101587.22;;;17.92;60.52
30073;BME280;16897;52.422;13.678;2022-10-31T17:39:51;101590.72;;;17.92;60.62
30073;BME280;16897;52.422;13.678;2022-10-31T17:43:57;101595.91;;;17.94;60.41
30073;BME280;16897;52.422;13.678;2022-10-31T17:47:59;101577.44;;;17.81;60.23
30073;BME280;16897;52.422;13.678;2022-10-31T17:52:00;101578.50;;;17.79;60.32
30073;BME280;16897;52.422;13.678;2022-10-31T17:56:07;101582.91;;;17.78;60.37
30073;BME280;16897;52.422;13.678;2022-10-31T18:00:14;101530.28;;;17.38;60.12
30073;BME280;16897;52.422;13.678;2022-10-31T18:04:16;101582.72;;;17.68;60.42
30073;BME280;16897;52.422;13.678;2022-10-31T18:08:17;101591.81;;;17.64;60.51
30073;BME280;16897;52.422;13.678;2022-10-31T18:12:19;101586.84;;;17.60;60.23
30073;BME280;16897;52.422;13.678;2022-10-31T18:16:21;101543.94;;;17.32;60.58
30073;BME280;16897;52.422;13.678;2022-10-31T18:20:22;101574.84;;;17.43;60.55
30073;BME280;16897;52.422;13.678;2022-10-31T18:24:24;101527.78;;;17.11;60.50
30073;BME280;16897;52.422;13.678;2022-10-31T18:28:25;101545.66;;;17.20;60.41
30073;BME280;16897;52.422;13.678;2022-10-31T18:32:27;101585.84;;;17.37;60.66
30073;BME280;16897;52.422;13.678;2022-10-31T18:36:28;101573.94;;;17.31;60.37
30073;BME280;16897;52.422;13.678;2022-10-31T18:40:31;101583.63;;;17.31;60.53
30073;BME280;16897;52.422;13.678;2022-10-31T18:44:33;101553.88;;;17.16;60.44
30073;BME280;16897;52.422;13.678;2022-10-31T18:48:36;101531.63;;;16.94;60.38
30073;BME280;16897;52.422;13.678;2022-10-31T18:52:37;101558.94;;;17.19;60.29
30073;BME280;16897;52.422;13.678;2022-10-31T18:56:39;101538.88;;;17.03;60.53
30073;BME280;16897;52.422;13.678;2022-10-31T19:00:40;101539.22;;;16.99;60.29
30073;BME280;16897;52.422;13.678;2022-10-31T19:04:42;101551.22;;;17.03;60.36
30073;BME280;16897;52.422;13.678;2022-10-31T19:08:44;101530.56;;;16.84;60.41
30073;BME280;16897;52.422;13.678;2022-10-31T19:12:45;101545.84;;;16.92;60.57
30073;BME280;16897;52.422;13.678;2022-10-31T19:16:47;101509.63;;;16.68;60.55
30073;BME280;16897;52.422;13.678;2022-10-31T19:20:49;101542.81;;;16.85;60.50
30073;BME280;16897;52.422;13.678;2022-10-31T19:24:50;101523.47;;;16.72;60.41
30073;BME280;16897;52.422;13.678;2022-10-31T19:28:52;101512.59;;;16.64;60.33
30073;BME280;16897;52.422;13.678;2022-10-31T19:32:54;101530.50;;;16.71;60.37
30073;BME280;16897;52.422;13.678;2022-10-31T19:36:56;101530.63;;;16.70;60.65
30073;BME280;16897;52.422;13.678;2022-10-31T19:41:01;101530.31;;;16.62;60.89
30073;BME280;16897;52.422;13.678;2022-10-31T19:45:04;101518.91;;;16.61;60.63
30073;BME280;16897;52.422;13.678;2022-10-31T19:49:05;101506.25;;;16.53;60.54
30073;BME280;16897;52.422;13.678;2022-10-31T19:53:07;101522.69;;;16.57;60.38
30073;BME280;16897;52.422;13.678;2022-10-31T19:57:10;101514.03;;;16.55;60.58
30073;BME280;16897;52.422;13.678;2022-10-31T20:01:18;101515.09;;;16.52;60.38
30073;BME280;16897;52.422;13.678;2022-10-31T20:05:19;101495.69;;;16.41;60.52
30073;BME280;16897;52.422;13.678;2022-10-31T20:09:21;101496.72;;;16.38;60.46
30073;BME280;16897;52.422;13.678;2022-10-31T20:13:23;101474.34;;;16.18;60.48
30073;BME280;16897;52.422;13.678;2022-10-31T20:17:25;101487.88;;;16.26;60.41
30073;BME280;16897;52.422;13.678;2022-10-31T20:21:28;101484.56;;;16.23;60.49
30073;BME280;16897;52.422;13.678;2022-10-31T20:25:30;101483.72;;;16.22;60.49
30073;BME280;16897;52.422;13.678;2022-10-31T20:29:33;101470.34;;;16.12;60.65
30073;BME280;16897;52.422;13.678;2022-10-31T20:33:35;101469.69;;;16.09;60.59
30073;BME280;16897;52.422;13.678;2022-10-31T20:37:38;101458.94;;;15.99;60.51
30073;BME280;16897;52.422;13.678;2022-10-31T20:41:39;101456.50;;;15.96;60.60
30073;BME280;16897;52.422;13.678;2022-10-31T20:45:41;101425.44;;;15.74;60.89
30073;BME280;16897;52.422;13.678;2022-10-31T20:49:43;101470.31;;;16.00;60.72
30073;BME280;16897;52.422;13.678;2022-10-31T20:53:45;101481.59;;;16.02;60.87
30073;BME280;16897;52.422;13.678;2022-10-31T20:57:47;101463.75;;;15.92;60.75
30073;BME280;16897;52.422;13.678;2022-10-31T21:01:48;101435.34;;;15.70;60.67
30073;BME280;16897;52.422;13.678;2022-10-31T21:05:58;101477.22;;;15.88;60.78
30073;BME280;16897;52.422;13.678;2022-10-31T21:09:59;101457.59;;;15.79;60.69
30073;BME280;16897;52.422;13.678;2022-10-31T21:14:01;101462.00;;;15.79;60.89
30073;BME280;16897;52.422;13.678;2022-10-31T21:18:03;101448.50;;;15.70;60.81
30073;BME280;16897;52.422;13.678;2022-10-31T21:22:04;101470.03;;;15.77;60.60
30073;BME280;16897;52.422;13.678;2022-10-31T21:26:22;101440.09;;;15.51;60.54
30073;BME280;16897;52.422;13.678;2022-10-31T21:30:23;101456.22;;;15.59;60.71
30073;BME280;16897;52.422;13.678;2022-10-31T21:34:25;101436.91;;;15.46;60.74
30073;BME280;16897;52.422;13.678;2022-10-31T21:38:27;101410.84;;;15.29;60.95
30073;BME280;16897;52.422;13.678;2022-10-31T21:42:28;101412.56;;;15.42;60.95
30073;BME280;16897;52.422;13.678;2022-10-31T21:46:31;101415.28;;;15.41;60.60
30073;BME280;16897;52.422;13.678;2022-10-31T21:50:34;101412.88;;;15.38;60.67
30073;BME280;16897;52.422;13.678;2022-10-31T21:54:36;101430.88;;;15.44;60.99
30073;BME280;16897;52.422;13.678;2022-10-31T21:58:38;101418.88;;;15.40;60.88
30073;BME280;16897;52.422;13.678;2022-10-31T22:02:39;101380.50;;;15.23;60.92
30073;BME280;16897;52.422;13.678;2022-10-31T22:06:41;101398.19;;;15.34;60.82
30073;BME280;16897;52.422;13.678;2022-10-31T22:10:43;101395.13;;;15.27;60.81
30073;BME280;16897;52.422;13.678;2022-10-31T22:14:44;101389.78;;;15.29;60.64
30073;BME280;16897;52.422;13.678;2022-10-31T22:18:46;101394.69;;;15.20;60.94
30073;BME280;16897;52.422;13.678;2022-10-31T22:22:49;101393.75;;;15.21;60.93
30073;BME280;16897;52.422;13.678;2022-10-31T22:26:51;101395.41;;;15.22;60.93
30073;BME280;16897;52.422;13.678;2022-10-31T22:30:52;101413.34;;;15.30;60.95
30073;BME280;16897;52.422;13.678;2022-10-31T22:34:54;101398.53;;;15.15;60.91
30073;BME280;16897;52.422;13.678;2022-10-31T22:38:57;101394.13;;;15.15;60.86
30073;BME280;16897;52.422;13.678;2022-10-31T22:42:59;101405.31;;;15.19;60.90
30073;BME280;16897;52.422;13.678;2022-10-31T22:47:00;101398.66;;;15.13;60.81
30073;BME280;16897;52.422;13.678;2022-10-31T22:55:06;101366.00;;;14.89;60.88
30073;BME280;16897;52.422;13.678;2022-10-31T22:59:12;101372.09;;;14.89;61.01